Meteo Giornale » Osservazioni meteo Italia » Milano-Malpensa

ore: 11:50 - Osservazioni Meteo Milano-Malpensa
Lat. 45° 37' N Lon. 8° 44' E Alt. 234 metri s.l.m.

sereno Europe/Rome

27 °C

Sereno

Temp. 24 Ore

15 °C

30 °C

Nord

11.1 Km/h

Dew point 7 °C

Umidità 28 %

Visibilità  10 Km

Il sole sorge alle ore 05:59

Il sole tramonta alle ore 21:03

Data e Ora Cielo e Fenomeni T °C DP °C Um. % Pres. hPa Vis. km Vento km/h
Oggi h: 11:50 sereno Sereno 27 7 28 1007 10 N 11.1
Oggi h: 11:20 sereno Sereno 26 7 29 1007 10 N/NE 11.1
Oggi h: 10:50 sereno Sereno 26 8 31 1007 10 N 9.3
Oggi h: 10:20 sereno Sereno 25 8 33 1007 10 N 9.3
Oggi h: 09:50 sereno Sereno 25 8 33 1007 10 N 7.4
Oggi h: 09:20 sereno Sereno 24 7 33 1007 10 N/NE 11.1
Oggi h: 08:50 sereno Sereno 23 9 40 1007 10 N/NE 11.1
Oggi h: 08:20 sereno Sereno 22 8 40 1007 10 N 9.3
Oggi h: 07:50 sereno Sereno 21 9 46 1007 10 N 5.5
Oggi h: 07:20 sereno Sereno 19 8 48 1006 10 N/NE 9.3
Oggi h: 06:50 sereno Sereno 17 8 55 1006 10 N 13
Oggi h: 06:20 sereno Sereno 18 7 48 1006 10 N 9.3
Oggi h: 05:50 sereno Sereno 15 6 54 1006 10 N 3.7
Oggi h: 05:20 sereno Sereno 15 6 54 1006 10 N 5.5
Oggi h: 04:50 sereno Sereno 15 6 54 1006 10 N 3.7
Oggi h: 04:20 sereno Sereno 16 7 55 1006 10 N 5.5
Oggi h: 03:50 sereno Sereno 16 7 55 1006 10 N 13
Oggi h: 03:20 sereno Sereno 17 7 51 1007 10 N 14.8
Oggi h: 02:50 sereno Sereno 20 5 37 1007 10 N 5.5
Ieri h: 23:50 sereno Sereno 22 5 32 1007 10 N/NE 14.8
Ieri h: 23:20 sereno Sereno 22 5 32 1006 10 N/NE 16.7
Ieri h: 22:50 sereno Sereno 23 5 31 1006 10 N/NE 18.5
Ieri h: 22:20 sereno Sereno 23 7 35 1006 10 N/NE 18.5
Ieri h: 21:50 poco_nuvoloso Poco Nuvoloso 24 13 50 1006 10 N 13
Ieri h: 21:20 nuvoloso Nuvoloso 23 13 53 1006 10 N 9.3
Ieri h: 20:50 coperto_pioggia Pioggia Debole 23 17 68 1005 10 N 3.7
Ieri h: 20:20 coperto_pioggia Pioggia Debole 24 17 64 1005 10 S 7.4
Ieri h: 19:50 molto_nuvoloso Molto Nuvoloso 26 17 57 1005 10 SE 11.1
Ieri h: 19:20 molto_nuvoloso Molto Nuvoloso 27 14 44 1004 10 N/NE 14.8
Ieri h: 18:50 molto_nuvoloso Molto Nuvoloso 27 15 47 1004 10 N 14.8
Ieri h: 18:20 molto_nuvoloso Molto Nuvoloso 27 16 50 1004 10 N/NO 16.7
Ieri h: 17:50 molto_nuvoloso Molto Nuvoloso 26 17 57 1004 10 N 13
Ieri h: 17:20 molto_nuvoloso Molto Nuvoloso 26 17 57 1004 10 N 18.5
Ieri h: 16:50 molto_nuvoloso Molto Nuvoloso 27 16 50 1004 10 N 18.5
Ieri h: 16:20 molto_nuvoloso Molto Nuvoloso 29 12 35 1004 10 N/NO 13
Ieri h: 15:50 molto_nuvoloso Molto Nuvoloso 28 12 37 1003 10 N/NE 13
Ieri h: 15:20 molto_nuvoloso Molto Nuvoloso 29 12 35 1004 0 N 3.7
Ieri h: 14:50 sereno Sereno 30 13 35 1004 10 N 9.3
Ieri h: 14:20 sereno Sereno 29 10 30 1004 10 N 7.4
Ieri h: 13:50 sereno Sereno 28 14 42 1005 10 N 7.4
Ieri h: 13:20 sereno Sereno 27 15 47 1005 10 E 9.3
Ieri h: 12:50 sereno Sereno 26 15 50 1005 10 E/NE 11.1